createdAt,value
2023-04-08T00:00:43.131Z,996.75
2023-04-08T00:01:43.219Z,996.74
2023-04-08T00:02:43.282Z,996.72
2023-04-08T00:03:43.251Z,996.81
2023-04-08T00:04:43.141Z,996.78
2023-04-08T00:05:43.095Z,996.71
2023-04-08T00:06:43.085Z,996.80
2023-04-08T00:07:43.072Z,996.75
2023-04-08T00:08:43.055Z,996.77
2023-04-08T00:09:43.046Z,996.76
2023-04-08T00:10:43.035Z,996.72
2023-04-08T00:11:43.039Z,996.78
2023-04-08T00:12:43.006Z,996.77
2023-04-08T00:13:42.995Z,996.74
2023-04-08T00:14:42.997Z,996.80
2023-04-08T00:15:42.975Z,996.81
2023-04-08T00:16:43.049Z,996.74
2023-04-08T00:17:43.030Z,996.83
2023-04-08T00:18:42.951Z,996.74
2023-04-08T00:19:42.941Z,996.82
2023-04-08T00:20:42.920Z,996.75
2023-04-08T00:21:42.928Z,996.79
2023-04-08T00:22:42.900Z,996.73
2023-04-08T00:23:42.910Z,996.81
2023-04-08T00:24:42.878Z,996.71
2023-04-08T00:25:42.869Z,996.75
2023-04-08T00:26:42.871Z,996.72
2023-04-08T00:27:42.850Z,996.78
2023-04-08T00:28:42.853Z,996.84
2023-04-08T00:29:42.826Z,996.81
2023-04-08T00:30:42.862Z,996.86
2023-04-08T00:31:42.820Z,996.81
2023-04-08T00:32:42.819Z,996.83
2023-04-08T00:33:42.795Z,996.79
2023-04-08T00:34:42.776Z,996.85
2023-04-08T00:35:42.781Z,996.83
2023-04-08T00:36:42.774Z,996.83
2023-04-08T00:37:42.771Z,996.80
2023-04-08T00:38:42.744Z,996.78
2023-04-08T00:39:42.725Z,996.75
2023-04-08T00:40:42.717Z,996.66
2023-04-08T00:41:42.713Z,996.78
2023-04-08T00:42:42.705Z,996.74
2023-04-08T00:43:42.685Z,996.73
2023-04-08T00:44:42.674Z,996.72
2023-04-08T00:45:42.670Z,996.75
2023-04-08T00:46:42.692Z,996.72
2023-04-08T00:47:42.679Z,996.72
2023-04-08T00:48:42.645Z,996.72
2023-04-08T00:49:42.620Z,996.67
2023-04-08T00:50:42.624Z,996.70
2023-04-08T00:51:42.609Z,996.70
2023-04-08T00:52:42.599Z,996.69
2023-04-08T00:53:42.572Z,996.72
2023-04-08T00:54:42.574Z,996.72
2023-04-08T00:55:42.577Z,996.81
2023-04-08T00:56:42.564Z,996.79
2023-04-08T00:57:42.540Z,996.81
2023-04-08T00:58:42.523Z,996.75
2023-04-08T00:59:42.517Z,996.75
2023-04-08T01:00:42.510Z,996.76
2023-04-08T01:01:42.665Z,996.74
2023-04-08T01:02:42.804Z,996.73
2023-04-08T01:03:42.592Z,996.73
2023-04-08T01:04:42.465Z,996.80
2023-04-08T01:05:42.452Z,996.81
2023-04-08T01:06:42.461Z,996.74
2023-04-08T01:07:42.439Z,996.81
2023-04-08T01:08:42.422Z,996.75
2023-04-08T01:09:42.406Z,996.73
2023-04-08T01:10:42.396Z,996.86
2023-04-08T01:11:42.412Z,996.78
2023-04-08T01:12:42.378Z,996.81
2023-04-08T01:13:42.378Z,996.77
2023-04-08T01:14:42.394Z,996.82
2023-04-08T01:15:42.361Z,996.81
2023-04-08T01:16:42.343Z,996.79
2023-04-08T01:17:42.356Z,996.85
2023-04-08T01:18:42.319Z,996.85
2023-04-08T01:19:42.318Z,996.78
2023-04-08T01:20:42.309Z,996.81
2023-04-08T01:21:42.301Z,996.75
2023-04-08T01:22:42.272Z,996.78
2023-04-08T01:23:42.276Z,996.78
2023-04-08T01:24:42.254Z,996.83
2023-04-08T01:25:42.247Z,996.84
2023-04-08T01:26:42.233Z,996.84
2023-04-08T01:27:42.229Z,996.85
2023-04-08T01:28:42.211Z,996.75
2023-04-08T01:29:42.199Z,996.79
2023-04-08T01:30:42.195Z,996.81
2023-04-08T01:31:42.267Z,996.96
2023-04-08T01:32:42.265Z,996.83
2023-04-08T01:33:42.158Z,996.80
2023-04-08T01:34:42.148Z,996.82
2023-04-08T01:35:42.194Z,996.85
2023-04-08T01:36:42.129Z,996.81
2023-04-08T01:37:42.126Z,996.84
2023-04-08T01:38:42.121Z,996.82
2023-04-08T01:39:42.096Z,996.89
2023-04-08T01:40:42.109Z,996.88
2023-04-08T01:41:42.081Z,996.84
2023-04-08T01:42:42.083Z,996.92
2023-04-08T01:43:42.059Z,996.85
2023-04-08T01:44:42.051Z,996.84
2023-04-08T01:45:42.030Z,996.91
2023-04-08T01:46:42.035Z,996.89
2023-04-08T01:47:42.105Z,996.94
2023-04-08T01:48:42.001Z,996.80
2023-04-08T01:49:41.986Z,996.82
2023-04-08T01:50:41.987Z,996.79
2023-04-08T01:51:41.975Z,996.78
2023-04-08T01:52:41.978Z,996.92
2023-04-08T01:53:41.949Z,996.82
2023-04-08T01:54:41.938Z,996.80
2023-04-08T01:55:41.925Z,996.85
2023-04-08T01:56:41.920Z,996.81
2023-04-08T01:57:41.918Z,996.81
2023-04-08T01:58:41.898Z,996.87
2023-04-08T01:59:41.888Z,996.82
2023-04-08T02:00:41.881Z,996.89
2023-04-08T02:01:41.925Z,996.79
2023-04-08T02:02:42.107Z,996.93
2023-04-08T02:03:41.883Z,996.91
2023-04-08T02:04:41.961Z,996.75
2023-04-08T02:05:41.825Z,996.79
2023-04-08T02:06:41.817Z,996.87
2023-04-08T02:07:41.818Z,996.82
2023-04-08T02:08:41.801Z,996.85
2023-04-08T02:09:41.781Z,996.82
2023-04-08T02:10:41.775Z,996.92
2023-04-08T02:11:41.786Z,996.87
2023-04-08T02:12:41.769Z,996.89
2023-04-08T02:13:41.749Z,996.91
2023-04-08T02:14:41.741Z,996.83
2023-04-08T02:15:41.732Z,996.97
2023-04-08T02:16:41.793Z,996.88
2023-04-08T02:17:41.730Z,996.93
2023-04-08T02:18:41.693Z,996.83
2023-04-08T02:19:41.678Z,996.91
2023-04-08T02:20:41.675Z,996.82
2023-04-08T02:21:41.654Z,996.86
2023-04-08T02:22:41.668Z,996.85
2023-04-08T02:23:41.645Z,996.85
2023-04-08T02:24:41.621Z,996.83
2023-04-08T02:25:41.623Z,996.85
2023-04-08T02:26:41.615Z,996.82
2023-04-08T02:27:41.611Z,996.85
2023-04-08T02:28:41.582Z,996.86
2023-04-08T02:29:41.582Z,996.94
2023-04-08T02:30:41.572Z,996.87
2023-04-08T02:31:41.606Z,996.89
2023-04-08T02:32:41.607Z,996.94
2023-04-08T02:33:41.522Z,996.87
2023-04-08T02:34:41.515Z,996.90
2023-04-08T02:35:41.575Z,996.93
2023-04-08T02:36:41.504Z,996.82
2023-04-08T02:37:41.501Z,996.87
2023-04-08T02:38:41.473Z,996.89
2023-04-08T02:39:41.469Z,996.86
2023-04-08T02:40:41.455Z,996.79
2023-04-08T02:41:41.443Z,996.88
2023-04-08T02:42:41.457Z,996.82
2023-04-08T02:43:41.419Z,996.75
2023-04-08T02:44:41.430Z,996.82
2023-04-08T02:45:41.452Z,996.75
2023-04-08T02:46:41.398Z,996.84
2023-04-08T02:47:41.445Z,996.89
2023-04-08T02:48:41.380Z,996.91
2023-04-08T02:49:41.352Z,996.83
2023-04-08T02:50:41.356Z,996.87
2023-04-08T02:51:41.335Z,996.86
2023-04-08T02:52:41.333Z,996.88
2023-04-08T02:53:41.323Z,996.90
2023-04-08T02:54:41.315Z,996.89
2023-04-08T02:55:41.302Z,996.92
2023-04-08T02:56:41.296Z,996.95
2023-04-08T02:57:41.276Z,996.88
2023-04-08T02:58:41.276Z,996.96
2023-04-08T02:59:41.247Z,997.01
2023-04-08T03:00:41.299Z,996.92
2023-04-08T03:01:41.264Z,997.03
2023-04-08T03:02:41.361Z,996.95
2023-04-08T03:03:41.442Z,996.96
2023-04-08T03:04:41.198Z,997.05
2023-04-08T03:05:41.193Z,997.01
2023-04-08T03:06:41.187Z,996.96
2023-04-08T03:07:41.165Z,996.97
2023-04-08T03:08:41.184Z,997.01
2023-04-08T03:09:41.147Z,996.99
2023-04-08T03:10:41.136Z,997.00
2023-04-08T03:11:41.124Z,996.95
2023-04-08T03:12:41.120Z,996.98
2023-04-08T03:13:41.116Z,997.05
2023-04-08T03:14:41.093Z,996.96
2023-04-08T03:15:41.084Z,997.02
2023-04-08T03:16:41.115Z,997.01
2023-04-08T03:17:41.097Z,997.12
2023-04-08T03:18:41.066Z,997.03
2023-04-08T03:19:41.042Z,996.98
2023-04-08T03:20:41.030Z,996.95
2023-04-08T03:21:41.016Z,997.03
2023-04-08T03:22:41.028Z,996.97
2023-04-08T03:23:41.008Z,996.96
2023-04-08T03:24:40.988Z,996.94
2023-04-08T03:25:40.988Z,996.90
2023-04-08T03:26:40.970Z,997.06
2023-04-08T03:27:40.950Z,997.05
2023-04-08T03:28:40.955Z,997.01
2023-04-08T03:29:40.929Z,997.05
2023-04-08T03:30:40.929Z,997.12
2023-04-08T03:31:40.929Z,997.10
2023-04-08T03:32:40.919Z,997.06
2023-04-08T03:33:40.910Z,997.12
2023-04-08T03:34:40.880Z,997.03
2023-04-08T03:35:40.942Z,997.10
2023-04-08T03:36:40.861Z,997.07
2023-04-08T03:37:40.843Z,997.07
2023-04-08T03:38:40.857Z,997.03
2023-04-08T03:39:40.828Z,996.98
2023-04-08T03:40:40.821Z,996.98
2023-04-08T03:41:40.802Z,997.03
2023-04-08T03:42:40.819Z,997.05
2023-04-08T03:43:40.792Z,997.03
2023-04-08T03:44:40.773Z,997.09
2023-04-08T03:45:40.766Z,997.20
2023-04-08T03:46:40.753Z,997.11
2023-04-08T03:47:40.763Z,997.05
2023-04-08T03:48:40.743Z,997.04
2023-04-08T03:49:40.715Z,997.01
2023-04-08T03:50:40.712Z,996.98
2023-04-08T03:51:40.700Z,997.06
2023-04-08T03:52:40.688Z,997.00
2023-04-08T03:53:40.692Z,997.06
2023-04-08T03:54:40.673Z,997.04
2023-04-08T03:55:40.666Z,997.09
2023-04-08T03:56:40.659Z,997.10
2023-04-08T03:57:40.645Z,997.12
2023-04-08T03:58:40.645Z,997.11
2023-04-08T03:59:40.621Z,997.12
2023-04-08T04:00:40.617Z,997.04
2023-04-08T04:01:41.952Z,997.07
2023-04-08T04:02:40.672Z,997.06
2023-04-08T04:03:40.663Z,996.98
2023-04-08T04:04:40.631Z,997.04
2023-04-08T04:05:40.554Z,996.97
2023-04-08T04:06:40.565Z,997.01
2023-04-08T04:07:40.548Z,997.09
2023-04-08T04:08:40.537Z,997.01
2023-04-08T04:09:40.514Z,996.99
2023-04-08T04:10:40.503Z,996.99
2023-04-08T04:11:40.492Z,997.07
2023-04-08T04:12:40.482Z,997.04
2023-04-08T04:13:40.484Z,996.99
2023-04-08T04:14:40.465Z,997.09
2023-04-08T04:15:40.477Z,997.13
2023-04-08T04:16:40.443Z,997.06
2023-04-08T04:17:40.462Z,997.13
2023-04-08T04:18:40.445Z,997.04
2023-04-08T04:19:40.406Z,997.11
2023-04-08T04:20:40.400Z,997.19
2023-04-08T04:21:40.391Z,997.14
2023-04-08T04:22:40.392Z,997.19
2023-04-08T04:23:40.377Z,997.20
2023-04-08T04:24:40.362Z,997.18
2023-04-08T04:25:40.343Z,997.20
2023-04-08T04:26:40.342Z,997.16
2023-04-08T04:27:40.340Z,997.15
2023-04-08T04:28:40.331Z,997.18
2023-04-08T04:29:40.296Z,997.23
2023-04-08T04:30:40.284Z,997.23
2023-04-08T04:31:40.393Z,997.28
2023-04-08T04:32:40.314Z,997.33
2023-04-08T04:33:40.254Z,997.29
2023-04-08T04:34:40.253Z,997.24
2023-04-08T04:35:40.243Z,997.33
2023-04-08T04:36:40.239Z,997.34
2023-04-08T04:37:40.227Z,997.23
2023-04-08T04:38:40.209Z,997.28
2023-04-08T04:39:40.207Z,997.25
2023-04-08T04:40:40.179Z,997.28
2023-04-08T04:41:40.166Z,997.27
2023-04-08T04:42:40.163Z,997.43
2023-04-08T04:43:40.149Z,997.39
2023-04-08T04:44:40.150Z,997.42
2023-04-08T04:45:40.122Z,997.33
2023-04-08T04:46:40.160Z,997.28
2023-04-08T04:47:40.184Z,997.26
2023-04-08T04:48:40.099Z,997.30
2023-04-08T04:49:40.109Z,997.32
2023-04-08T04:50:40.081Z,997.32
2023-04-08T04:51:40.082Z,997.33
2023-04-08T04:52:40.059Z,997.37
2023-04-08T04:53:40.050Z,997.33
2023-04-08T04:54:40.043Z,997.47
2023-04-08T04:55:40.026Z,997.46
2023-04-08T04:56:40.019Z,997.46
2023-04-08T04:57:40.017Z,997.42
2023-04-08T04:58:39.988Z,997.40
2023-04-08T04:59:39.992Z,997.44
2023-04-08T05:00:39.969Z,997.39
2023-04-08T05:01:40.061Z,997.41
2023-04-08T05:02:40.272Z,997.45
2023-04-08T05:03:40.024Z,997.45
2023-04-08T05:04:39.998Z,997.34
2023-04-08T05:05:39.926Z,997.38
2023-04-08T05:06:39.916Z,997.46
2023-04-08T05:07:39.903Z,997.41
2023-04-08T05:08:39.892Z,997.50
2023-04-08T05:09:39.901Z,997.44
2023-04-08T05:10:39.878Z,997.44
2023-04-08T05:11:39.873Z,997.55
2023-04-08T05:12:39.862Z,997.47
2023-04-08T05:13:39.856Z,997.50
2023-04-08T05:14:39.841Z,997.50
2023-04-08T05:15:39.829Z,997.40
2023-04-08T05:16:39.888Z,997.48
2023-04-08T05:17:39.857Z,997.51
2023-04-08T05:18:39.795Z,997.48
2023-04-08T05:19:39.797Z,997.55
2023-04-08T05:20:39.779Z,997.58
2023-04-08T05:21:39.767Z,997.57
2023-04-08T05:22:39.753Z,997.61
2023-04-08T05:23:39.752Z,997.57
2023-04-08T05:24:39.763Z,997.65
2023-04-08T05:25:39.720Z,997.70
2023-04-08T05:26:39.717Z,997.64
2023-04-08T05:27:39.701Z,997.69
2023-04-08T05:28:39.691Z,997.69
2023-04-08T05:29:39.693Z,997.70
2023-04-08T05:30:39.678Z,997.75
2023-04-08T05:31:39.739Z,997.70
2023-04-08T05:32:39.669Z,997.71
2023-04-08T05:33:39.639Z,997.65
2023-04-08T05:34:39.643Z,997.67
2023-04-08T05:35:39.682Z,997.67
2023-04-08T05:36:39.601Z,997.63
2023-04-08T05:37:39.603Z,997.67
2023-04-08T05:38:39.580Z,997.69
2023-04-08T05:39:39.587Z,997.68
2023-04-08T05:40:39.562Z,997.73
2023-04-08T05:41:39.551Z,997.64
2023-04-08T05:42:39.548Z,997.64
2023-04-08T05:43:39.532Z,997.70
2023-04-08T05:44:39.538Z,997.77
2023-04-08T05:45:39.520Z,997.61
2023-04-08T05:46:39.526Z,997.67
2023-04-08T05:47:39.532Z,997.68
2023-04-08T05:48:39.486Z,997.66
2023-04-08T05:49:39.488Z,997.69
2023-04-08T05:50:39.465Z,997.71
2023-04-08T05:51:39.454Z,997.67
2023-04-08T05:52:39.439Z,997.72
2023-04-08T05:53:39.446Z,997.72
2023-04-08T05:54:39.432Z,997.68
2023-04-08T05:55:39.415Z,997.70
2023-04-08T05:56:39.433Z,997.71
2023-04-08T05:57:39.399Z,997.72
2023-04-08T05:58:39.397Z,997.70
2023-04-08T05:59:39.536Z,997.70
2023-04-08T06:00:39.357Z,997.70
2023-04-08T06:01:39.401Z,997.74
2023-04-08T06:02:39.538Z,997.82
2023-04-08T06:03:39.451Z,997.78
2023-04-08T06:04:39.510Z,997.77
2023-04-08T06:05:39.310Z,997.79
2023-04-08T06:06:39.302Z,997.79
2023-04-08T06:07:39.301Z,997.87
2023-04-08T06:08:39.282Z,997.89
2023-04-08T06:09:39.288Z,997.86
2023-04-08T06:10:39.261Z,997.89
2023-04-08T06:11:39.253Z,997.83
2023-04-08T06:12:39.245Z,997.85
2023-04-08T06:13:39.236Z,997.85
2023-04-08T06:14:39.227Z,997.85
2023-04-08T06:15:39.215Z,997.91
2023-04-08T06:16:39.265Z,997.84
2023-04-08T06:17:39.210Z,997.90
2023-04-08T06:18:39.177Z,997.77
2023-04-08T06:19:39.185Z,997.86
2023-04-08T06:20:39.165Z,997.84
2023-04-08T06:21:39.149Z,997.89
2023-04-08T06:22:39.141Z,997.87
2023-04-08T06:23:39.132Z,997.91
2023-04-08T06:24:39.121Z,998.00
2023-04-08T06:25:39.118Z,997.99
2023-04-08T06:26:39.100Z,997.99
2023-04-08T06:27:39.096Z,997.95
2023-04-08T06:28:39.091Z,998.01
2023-04-08T06:29:39.720Z,997.94
2023-04-08T06:30:39.065Z,998.00
2023-04-08T06:31:39.097Z,998.02
2023-04-08T06:32:39.092Z,998.14
2023-04-08T06:33:39.035Z,997.97
2023-04-08T06:34:39.039Z,998.02
2023-04-08T06:35:39.075Z,998.07
2023-04-08T06:36:38.997Z,998.09
2023-04-08T06:37:39.035Z,998.13
2023-04-08T06:38:38.979Z,998.13
2023-04-08T06:39:38.989Z,998.11
2023-04-08T06:40:38.960Z,998.13
2023-04-08T06:41:38.954Z,998.13
2023-04-08T06:42:38.936Z,998.13
2023-04-08T06:43:38.926Z,998.18
2023-04-08T06:44:38.964Z,998.20
2023-04-08T06:45:39.234Z,998.12
2023-04-08T06:46:38.899Z,998.16
2023-04-08T06:47:38.960Z,998.21
2023-04-08T06:48:38.876Z,998.18
2023-04-08T06:49:38.886Z,998.27
2023-04-08T06:50:38.857Z,998.21
2023-04-08T06:51:38.852Z,998.22
2023-04-08T06:52:38.840Z,998.21
2023-04-08T06:53:38.837Z,998.32
2023-04-08T06:54:38.835Z,998.41
2023-04-08T06:55:38.814Z,998.30
2023-04-08T06:56:38.808Z,998.26
2023-04-08T06:57:38.802Z,998.33
2023-04-08T06:58:38.776Z,998.23
2023-04-08T06:59:38.785Z,998.28
2023-04-08T07:00:38.766Z,998.23
2023-04-08T07:01:38.814Z,998.41
2023-04-08T07:02:38.837Z,998.26
2023-04-08T07:03:38.814Z,998.26
2023-04-08T07:04:38.747Z,998.35
2023-04-08T07:05:38.712Z,998.40
2023-04-08T07:06:38.698Z,998.37
2023-04-08T07:07:38.698Z,998.33
2023-04-08T07:08:38.695Z,998.37
2023-04-08T07:09:38.690Z,998.33
2023-04-08T07:10:38.664Z,998.42
2023-04-08T07:11:38.672Z,998.37
2023-04-08T07:12:38.643Z,998.36
2023-04-08T07:13:38.651Z,998.36
2023-04-08T07:14:38.639Z,998.35
2023-04-08T07:15:38.616Z,998.45
2023-04-08T07:16:38.703Z,998.45
2023-04-08T07:17:38.632Z,998.46
2023-04-08T07:18:38.590Z,998.45
2023-04-08T07:19:38.597Z,998.53
2023-04-08T07:20:38.595Z,998.52
2023-04-08T07:21:38.564Z,998.53
2023-04-08T07:22:38.553Z,998.59
2023-04-08T07:23:38.544Z,998.65
2023-04-08T07:24:38.543Z,998.68
2023-04-08T07:25:38.531Z,998.61
2023-04-08T07:26:38.515Z,998.62
2023-04-08T07:27:38.497Z,998.56
2023-04-08T07:28:38.504Z,998.59
2023-04-08T07:29:38.507Z,998.56
2023-04-08T07:30:38.531Z,998.52
2023-04-08T07:31:38.465Z,998.61
2023-04-08T07:32:38.465Z,998.59
2023-04-08T07:33:38.442Z,998.62
2023-04-08T07:34:38.437Z,998.59
2023-04-08T07:35:38.447Z,998.67
2023-04-08T07:36:38.435Z,998.59
2023-04-08T07:37:38.394Z,998.63
2023-04-08T07:38:38.379Z,998.65
2023-04-08T07:39:38.380Z,998.64
2023-04-08T07:40:38.359Z,998.63
2023-04-08T07:41:38.364Z,998.62
2023-04-08T07:42:40.261Z,998.59
2023-04-08T07:43:38.328Z,998.64
2023-04-08T07:44:38.329Z,998.55
2023-04-08T07:45:38.312Z,998.61
2023-04-08T07:46:38.399Z,998.60
2023-04-08T07:47:38.308Z,998.63
2023-04-08T07:48:38.277Z,998.67
2023-04-08T07:49:38.267Z,998.68
2023-04-08T07:51:08.284Z,998.63
2023-04-08T07:51:39.252Z,998.63
2023-04-08T07:52:38.232Z,998.64
2023-04-08T07:53:38.302Z,998.62
2023-04-08T07:54:38.224Z,998.61
2023-04-08T07:55:38.215Z,998.63
2023-04-08T07:56:38.207Z,998.59
2023-04-08T07:57:38.228Z,998.69
2023-04-08T07:58:38.181Z,998.66
2023-04-08T07:59:38.166Z,998.74
2023-04-08T08:00:38.178Z,998.69
2023-04-08T08:01:38.148Z,998.67
2023-04-08T08:02:38.178Z,998.76
2023-04-08T08:03:38.252Z,998.78
2023-04-08T08:04:38.313Z,998.77
2023-04-08T08:05:38.108Z,998.82
2023-04-08T08:06:38.085Z,998.75
2023-04-08T08:07:38.076Z,998.84
2023-04-08T08:08:38.061Z,998.81
2023-04-08T08:09:38.058Z,998.78
2023-04-08T08:10:38.047Z,998.85
2023-04-08T08:11:38.032Z,998.85
2023-04-08T08:12:38.022Z,998.82
2023-04-08T08:13:38.012Z,998.89
2023-04-08T08:14:37.998Z,998.76
2023-04-08T08:15:38.019Z,998.87
2023-04-08T08:16:37.982Z,998.83
2023-04-08T08:17:37.988Z,998.91
2023-04-08T08:18:37.962Z,998.96
2023-04-08T08:19:37.952Z,998.96
2023-04-08T08:20:37.942Z,998.96
2023-04-08T08:21:37.943Z,998.94
2023-04-08T08:22:44.328Z,998.94
2023-04-08T08:23:38.918Z,998.95
2023-04-08T08:24:37.910Z,998.90
2023-04-08T08:25:37.892Z,998.91
2023-04-08T08:26:37.875Z,998.92
2023-04-08T08:27:37.866Z,998.98
2023-04-08T08:28:37.855Z,998.89
2023-04-08T08:29:37.843Z,999.06
2023-04-08T08:30:37.839Z,999.05
2023-04-08T08:31:37.889Z,999.02
2023-04-08T08:32:37.826Z,999.01
2023-04-08T08:33:37.815Z,999.02
2023-04-08T08:34:37.795Z,999.05
2023-04-08T08:35:37.849Z,999.08
2023-04-08T08:36:39.414Z,999.02
2023-04-08T08:37:37.760Z,999.03
2023-04-08T08:38:37.764Z,999.04
2023-04-08T08:39:37.765Z,999.07
2023-04-08T08:40:37.734Z,999.04
2023-04-08T08:41:37.757Z,999.12
2023-04-08T08:42:37.711Z,999.07
2023-04-08T08:43:37.700Z,999.17
2023-04-08T08:44:37.682Z,999.06
2023-04-08T08:45:37.689Z,999.04
2023-04-08T08:46:37.768Z,999.10
2023-04-08T08:47:37.689Z,999.15
2023-04-08T08:48:37.639Z,999.12
2023-04-08T08:49:37.636Z,999.09
2023-04-08T08:50:37.630Z,999.07
2023-04-08T08:51:37.612Z,999.10
2023-04-08T08:52:37.625Z,999.08
2023-04-08T08:53:37.594Z,999.12
2023-04-08T08:54:37.580Z,999.12
2023-04-08T08:56:37.561Z,999.22
2023-04-08T08:57:37.599Z,999.12
2023-04-08T08:58:37.529Z,999.15
2023-04-08T08:59:37.522Z,999.19
2023-04-08T09:00:37.529Z,999.24
2023-04-08T09:01:37.759Z,999.22
2023-04-08T09:02:37.619Z,999.20
2023-04-08T09:03:37.596Z,999.27
2023-04-08T09:04:37.578Z,999.26
2023-04-08T09:05:37.566Z,999.29
2023-04-08T09:06:37.449Z,999.20
2023-04-08T09:07:37.440Z,999.33
2023-04-08T09:08:37.435Z,999.30
2023-04-08T09:09:37.420Z,999.32
2023-04-08T09:10:37.414Z,999.40
2023-04-08T09:11:37.394Z,999.36
2023-04-08T09:12:37.384Z,999.38
2023-04-08T09:13:37.371Z,999.34
2023-04-08T09:14:37.367Z,999.40
2023-04-08T09:15:37.359Z,999.30
2023-04-08T09:16:37.382Z,999.37
2023-04-08T09:17:37.386Z,999.33
2023-04-08T09:18:37.322Z,999.31
2023-04-08T09:19:37.317Z,999.31
2023-04-08T09:20:37.407Z,999.29
2023-04-08T09:21:37.288Z,999.37
2023-04-08T09:22:37.283Z,999.33
2023-04-08T09:23:37.263Z,999.32
2023-04-08T09:24:37.407Z,999.32
2023-04-08T09:25:37.279Z,999.28
2023-04-08T09:26:37.240Z,999.28
2023-04-08T09:27:37.222Z,999.21
2023-04-08T09:28:37.221Z,999.24
2023-04-08T09:29:39.659Z,999.19
2023-04-08T09:30:37.271Z,999.25
2023-04-08T09:31:37.211Z,999.23
2023-04-08T09:32:37.196Z,999.22
2023-04-08T09:33:37.161Z,999.19
2023-04-08T09:34:37.155Z,999.18
2023-04-08T09:35:37.257Z,999.22
2023-04-08T09:36:37.152Z,999.31
2023-04-08T09:37:37.129Z,999.28
2023-04-08T09:38:37.111Z,999.27
2023-04-08T09:39:37.094Z,999.26
2023-04-08T09:40:37.091Z,999.32
2023-04-08T09:41:37.101Z,999.32
2023-04-08T09:42:37.065Z,999.39
2023-04-08T09:43:37.061Z,999.44
2023-04-08T09:44:37.056Z,999.46
2023-04-08T09:45:37.106Z,999.38
2023-04-08T09:46:37.047Z,999.41
2023-04-08T09:47:37.066Z,999.44
2023-04-08T09:48:37.012Z,999.45
2023-04-08T09:49:36.997Z,999.53
2023-04-08T09:50:36.992Z,999.48
2023-04-08T09:51:36.996Z,999.44
2023-04-08T09:52:36.987Z,999.53
2023-04-08T09:53:36.963Z,999.51
2023-04-08T09:54:36.966Z,999.50
2023-04-08T09:55:36.941Z,999.52
2023-04-08T09:56:36.938Z,999.54
2023-04-08T09:57:36.926Z,999.59
2023-04-08T09:58:36.909Z,999.55
2023-04-08T09:59:36.909Z,999.61
2023-04-08T10:00:36.909Z,999.54
2023-04-08T10:01:37.051Z,999.59
2023-04-08T10:02:36.974Z,999.60
2023-04-08T10:03:36.930Z,999.57
2023-04-08T10:04:36.872Z,999.58
2023-04-08T10:05:36.834Z,999.61
2023-04-08T10:06:36.841Z,999.54
2023-04-08T10:07:36.820Z,999.61
2023-04-08T10:08:36.811Z,999.63
2023-04-08T10:09:36.787Z,999.54
2023-04-08T10:10:36.786Z,999.58
2023-04-08T10:11:36.782Z,999.61
2023-04-08T10:12:36.764Z,999.64
2023-04-08T10:13:36.758Z,999.66
2023-04-08T10:14:36.742Z,999.59
2023-04-08T10:15:36.741Z,999.69
2023-04-08T10:16:36.753Z,999.66
2023-04-08T10:17:36.846Z,999.65
2023-04-08T10:18:36.692Z,999.68
2023-04-08T10:19:36.683Z,999.69
2023-04-08T10:20:36.716Z,999.66
2023-04-08T10:21:36.674Z,999.56
2023-04-08T10:22:36.651Z,999.58
2023-04-08T10:23:36.643Z,999.54
2023-04-08T10:24:36.629Z,999.57
2023-04-08T10:25:36.620Z,999.62
2023-04-08T10:26:36.647Z,999.55
2023-04-08T10:27:36.608Z,999.53
2023-04-08T10:28:36.586Z,999.56
2023-04-08T10:29:36.577Z,999.54
2023-04-08T10:30:36.562Z,999.53
2023-04-08T10:31:36.641Z,999.60
2023-04-08T10:32:36.640Z,999.58
2023-04-08T10:33:40.020Z,999.60
2023-04-08T10:34:36.526Z,999.57
2023-04-08T10:35:36.548Z,999.60
2023-04-08T10:36:36.506Z,999.65
2023-04-08T10:37:36.508Z,999.68
2023-04-08T10:38:36.480Z,999.69
2023-04-08T10:39:38.640Z,999.67
2023-04-08T10:40:36.474Z,999.67
2023-04-08T10:41:36.455Z,999.71
2023-04-08T10:42:36.455Z,999.78
2023-04-08T10:43:36.429Z,999.74
2023-04-08T10:44:36.420Z,999.72
2023-04-08T10:45:36.453Z,999.73
2023-04-08T10:46:36.419Z,999.76
2023-04-08T10:47:36.441Z,999.79
2023-04-08T10:48:36.386Z,999.79
2023-04-08T10:49:36.369Z,999.78
2023-04-08T10:50:36.362Z,999.74
2023-04-08T10:51:36.356Z,999.75
2023-04-08T10:52:36.355Z,999.78
2023-04-08T10:53:36.333Z,999.76
2023-04-08T10:54:36.323Z,999.84
2023-04-08T10:55:36.312Z,999.81
2023-04-08T10:56:36.301Z,999.82
2023-04-08T10:57:36.297Z,999.77
2023-04-08T10:58:36.291Z,999.81
2023-04-08T10:59:36.266Z,999.77
2023-04-08T11:00:36.283Z,999.77
2023-04-08T11:01:36.261Z,999.77
2023-04-08T11:02:36.411Z,999.86
2023-04-08T11:03:36.527Z,999.86
2023-04-08T11:04:36.347Z,999.79
2023-04-08T11:05:36.200Z,999.86
2023-04-08T11:06:36.198Z,999.79
2023-04-08T11:07:36.208Z,999.72
2023-04-08T11:08:36.175Z,999.81
2023-04-08T11:09:36.162Z,999.74
2023-04-08T11:10:36.156Z,999.73
2023-04-08T11:11:36.175Z,999.61
2023-04-08T11:12:36.143Z,999.62
2023-04-08T11:13:36.117Z,999.64
2023-04-08T11:14:36.110Z,999.71
2023-04-08T11:15:36.156Z,999.71
2023-04-08T11:16:36.127Z,999.72
2023-04-08T11:17:36.143Z,999.68
2023-04-08T11:18:36.076Z,999.68
2023-04-08T11:19:36.064Z,999.61
2023-04-08T11:20:36.098Z,999.65
2023-04-08T11:21:36.047Z,999.65
2023-04-08T11:22:36.055Z,999.67
2023-04-08T11:23:36.014Z,999.66
2023-04-08T11:24:36.011Z,999.74
2023-04-08T11:25:36.074Z,999.66
2023-04-08T11:26:50.525Z,999.69
2023-04-08T11:27:35.992Z,999.58
2023-04-08T11:28:35.966Z,999.67
2023-04-08T11:29:35.949Z,999.68
2023-04-08T11:30:35.952Z,999.63
2023-04-08T11:31:36.051Z,999.64
2023-04-08T11:32:36.053Z,999.74
2023-04-08T11:33:35.918Z,999.72
2023-04-08T11:34:35.907Z,999.76
2023-04-08T11:35:35.936Z,999.70
2023-04-08T11:36:35.884Z,999.70
2023-04-08T11:37:35.886Z,999.72
2023-04-08T11:38:35.864Z,999.69
2023-04-08T11:39:36.976Z,999.74
2023-04-08T11:40:35.856Z,999.66
2023-04-08T11:41:35.853Z,999.69
2023-04-08T11:42:35.835Z,999.73
2023-04-08T11:43:35.809Z,999.68
2023-04-08T11:44:35.815Z,999.63
2023-04-08T11:45:35.796Z,999.67
2023-04-08T11:46:35.832Z,999.66
2023-04-08T11:47:35.816Z,999.68
2023-04-08T11:48:35.771Z,999.60
2023-04-08T11:49:35.757Z,999.63
2023-04-08T11:50:35.748Z,999.68
2023-04-08T11:51:35.750Z,999.70
2023-04-08T11:52:35.734Z,999.71
2023-04-08T11:53:36.876Z,999.81
2023-04-08T11:54:36.842Z,999.76
2023-04-08T11:55:36.878Z,999.71
2023-04-08T11:56:36.867Z,999.71
2023-04-08T11:57:36.854Z,999.68
2023-04-08T11:58:36.797Z,999.70
2023-04-08T11:59:36.808Z,999.67
2023-04-08T12:00:36.783Z,999.68
2023-04-08T12:01:36.815Z,999.66
2023-04-08T12:02:39.612Z,999.75
2023-04-08T12:03:36.916Z,999.76
2023-04-08T12:04:36.790Z,999.62
2023-04-08T12:05:36.749Z,999.65
2023-04-08T12:06:36.729Z,999.67
2023-04-08T12:07:36.760Z,999.63
2023-04-08T12:08:36.739Z,999.74
2023-04-08T12:09:36.740Z,999.62
2023-04-08T12:10:36.752Z,999.71
2023-04-08T12:11:36.658Z,999.70
2023-04-08T12:12:36.644Z,999.72
2023-04-08T12:13:36.663Z,999.64
2023-04-08T12:14:36.657Z,999.73
2023-04-08T12:15:36.640Z,999.67
2023-04-08T12:16:36.735Z,999.65
2023-04-08T12:17:36.656Z,999.59
2023-04-08T12:18:36.616Z,999.62
2023-04-08T12:19:38.358Z,999.55
2023-04-08T12:20:37.612Z,999.68
2023-04-08T12:21:36.571Z,999.68
2023-04-08T12:22:36.566Z,999.57
2023-04-08T12:23:36.586Z,999.63
2023-04-08T12:24:36.566Z,999.60
2023-04-08T12:25:36.551Z,999.53
2023-04-08T12:26:36.536Z,999.61
2023-04-08T12:27:36.508Z,999.55
2023-04-08T12:28:36.533Z,999.51
2023-04-08T12:29:36.516Z,999.58